createdAt,value
2019-03-20T00:01:12.054Z,99639.92
2019-03-20T00:02:15.125Z,99636.30
2019-03-20T00:03:17.436Z,99637.96
2019-03-20T00:04:21.364Z,99641.25
2019-03-20T00:05:23.336Z,99635.63
2019-03-20T00:06:25.599Z,99640.47
2019-03-20T00:07:27.548Z,99639.81
2019-03-20T00:08:29.642Z,99637.00
2019-03-20T00:09:31.437Z,99634.34
2019-03-20T00:10:34.025Z,99640.84
2019-03-20T00:11:36.265Z,99637.37
2019-03-20T00:12:38.252Z,99640.70
2019-03-20T00:13:40.483Z,99635.67
2019-03-20T00:14:42.538Z,99636.70
2019-03-20T00:15:44.653Z,99640.03
2019-03-20T00:16:46.985Z,99636.73
2019-03-20T00:17:49.403Z,99633.89
2019-03-20T00:18:51.735Z,99636.40
2019-03-20T00:19:54.914Z,99636.07
2019-03-20T00:20:57.097Z,99636.25
2019-03-20T00:21:59.137Z,99632.92
2019-03-20T00:23:01.510Z,99638.28
2019-03-20T00:24:03.827Z,99636.10
2019-03-20T00:25:07.991Z,99640.79
2019-03-20T00:26:10.159Z,99634.13
2019-03-20T00:27:12.261Z,99634.31
2019-03-20T00:28:14.209Z,99630.80
2019-03-20T00:29:16.401Z,99639.46
2019-03-20T00:30:19.410Z,99635.83
2019-03-20T00:31:21.424Z,99640.48
2019-03-20T00:32:23.743Z,99640.48
2019-03-20T00:33:25.495Z,99639.16
2019-03-20T00:34:27.528Z,99642.84
2019-03-20T00:35:29.588Z,99641.16
2019-03-20T00:36:32.528Z,99645.33
2019-03-20T00:37:34.936Z,99644.52
2019-03-20T00:38:37.332Z,99644.52
2019-03-20T00:39:39.474Z,99645.33
2019-03-20T00:40:41.808Z,99644.00
2019-03-20T00:41:43.964Z,99648.78
2019-03-20T00:42:46.301Z,99642.27
2019-03-20T00:43:48.381Z,99648.08
2019-03-20T00:44:50.497Z,99644.05
2019-03-20T00:45:52.610Z,99646.53
2019-03-20T00:46:54.567Z,99649.68
2019-03-20T00:47:56.709Z,99650.19
2019-03-20T00:48:58.660Z,99650.05
2019-03-20T00:50:00.630Z,99644.05
2019-03-20T00:51:03.190Z,99645.69
2019-03-20T00:52:04.946Z,99645.05
2019-03-20T00:53:06.927Z,99643.02
2019-03-20T00:54:08.725Z,99646.02
2019-03-20T00:55:15.191Z,99648.98
2019-03-20T00:56:17.319Z,99647.45
2019-03-20T00:57:19.568Z,99645.24
2019-03-20T00:58:22.691Z,99650.90
2019-03-20T00:59:24.880Z,99650.38
2019-03-20T01:00:27.334Z,99654.52
2019-03-20T01:01:29.022Z,99651.53
2019-03-20T01:02:31.020Z,99655.22
2019-03-20T01:03:33.103Z,99652.70
2019-03-20T01:04:35.257Z,99649.23
2019-03-20T01:05:38.047Z,99654.92
2019-03-20T01:06:39.999Z,99647.91
2019-03-20T01:07:43.119Z,99650.60
2019-03-20T01:08:45.088Z,99651.64
2019-03-20T01:09:47.069Z,99657.96
2019-03-20T01:10:49.271Z,99659.81
2019-03-20T01:11:51.443Z,99656.66
2019-03-20T01:12:53.695Z,99652.16
2019-03-20T01:13:55.692Z,99656.70
2019-03-20T01:14:57.685Z,99661.02
2019-03-20T01:15:59.720Z,99656.55
2019-03-20T01:17:01.815Z,99657.73
2019-03-20T01:18:04.148Z,99659.73
2019-03-20T01:19:06.219Z,99656.92
2019-03-20T01:20:18.529Z,99656.06
2019-03-20T01:21:21.634Z,99660.24
2019-03-20T01:22:23.639Z,99655.77
2019-03-20T01:23:26.818Z,99662.42
2019-03-20T01:24:28.866Z,99652.63
2019-03-20T01:25:31.070Z,99656.28
2019-03-20T01:26:33.460Z,99655.77
2019-03-20T01:27:35.623Z,99655.77
2019-03-20T01:28:37.616Z,99653.92
2019-03-20T01:29:39.577Z,99661.06
2019-03-20T01:30:41.474Z,99664.05
2019-03-20T01:31:43.554Z,99666.38
2019-03-20T01:32:45.714Z,99663.53
2019-03-20T01:33:51.394Z,99664.69
2019-03-20T01:34:53.829Z,99666.87
2019-03-20T01:35:56.013Z,99666.68
2019-03-20T01:36:58.762Z,99662.66
2019-03-20T01:38:01.079Z,99664.36
2019-03-20T01:39:05.067Z,99665.02
2019-03-20T01:40:07.021Z,99663.36
2019-03-20T01:41:09.088Z,99663.72
2019-03-20T01:42:11.218Z,99662.54
2019-03-20T01:43:13.309Z,99663.88
2019-03-20T01:44:15.311Z,99663.09
2019-03-20T01:45:17.430Z,99660.91
2019-03-20T01:46:19.463Z,99666.08
2019-03-20T01:47:21.580Z,99662.76
2019-03-20T01:48:23.346Z,99662.61
2019-03-20T01:49:25.288Z,99667.41
2019-03-20T01:50:27.581Z,99658.46
2019-03-20T01:51:29.756Z,99663.13
2019-03-20T01:52:31.863Z,99665.30
2019-03-20T01:53:33.995Z,99667.45
2019-03-20T01:54:35.693Z,99667.63
2019-03-20T01:55:37.869Z,99668.30
2019-03-20T01:56:39.815Z,99665.48
2019-03-20T01:57:41.816Z,99665.81
2019-03-20T01:58:43.772Z,99668.33
2019-03-20T01:59:45.761Z,99663.16
2019-03-20T02:00:47.827Z,99668.48
2019-03-20T02:01:49.944Z,99674.13
2019-03-20T02:02:52.019Z,99667.33
2019-03-20T02:03:53.896Z,99674.29
2019-03-20T02:04:55.990Z,99676.31
2019-03-20T02:05:58.292Z,99676.13
2019-03-20T02:07:00.090Z,99680.80
2019-03-20T02:08:02.230Z,99680.31
2019-03-20T02:09:05.557Z,99683.30
2019-03-20T02:10:12.020Z,99678.28
2019-03-20T02:11:14.166Z,99684.12
2019-03-20T02:12:16.168Z,99674.98
2019-03-20T02:13:18.026Z,99678.80
2019-03-20T02:14:20.726Z,99678.98
2019-03-20T02:15:22.656Z,99684.12
2019-03-20T02:16:24.876Z,99680.46
2019-03-20T02:17:27.104Z,99684.85
2019-03-20T02:18:28.866Z,99680.34
2019-03-20T02:19:30.520Z,99690.52
2019-03-20T02:20:32.590Z,99684.12
2019-03-20T02:21:34.730Z,99691.84
2019-03-20T02:22:36.396Z,99689.18
2019-03-20T02:23:38.465Z,99686.37
2019-03-20T02:24:40.154Z,99684.34
2019-03-20T02:25:42.270Z,99687.78
2019-03-20T02:26:44.395Z,99685.45
2019-03-20T02:27:46.416Z,99682.67
2019-03-20T02:28:49.678Z,99685.78
2019-03-20T02:29:52.126Z,99682.19
2019-03-20T02:30:53.794Z,99678.86
2019-03-20T02:31:55.916Z,99684.37
2019-03-20T02:32:57.894Z,99679.19
2019-03-20T02:33:59.584Z,99682.86
2019-03-20T02:35:02.023Z,99684.52
2019-03-20T02:36:05.307Z,99688.66
2019-03-20T02:37:07.232Z,99687.87
2019-03-20T02:38:09.191Z,99689.55
2019-03-20T02:39:12.144Z,99690.72
2019-03-20T02:40:14.852Z,99695.69
2019-03-20T02:41:17.082Z,99694.84
2019-03-20T02:42:19.277Z,99694.17
2019-03-20T02:43:21.202Z,99693.20
2019-03-20T02:44:23.403Z,99691.88
2019-03-20T02:45:25.389Z,99690.88
2019-03-20T02:46:27.332Z,99697.05
2019-03-20T02:47:29.519Z,99697.53
2019-03-20T02:48:31.186Z,99699.05
2019-03-20T02:49:33.378Z,99701.05
2019-03-20T02:50:35.524Z,99702.53
2019-03-20T02:51:37.814Z,99699.53
2019-03-20T02:52:39.781Z,99703.37
2019-03-20T02:53:42.351Z,99697.89
2019-03-20T02:54:44.202Z,99705.89
2019-03-20T02:55:46.242Z,99706.55
2019-03-20T02:56:48.268Z,99704.73
2019-03-20T02:57:50.287Z,99703.89
2019-03-20T02:58:52.403Z,99702.89
2019-03-20T02:59:54.780Z,99708.91
2019-03-20T03:00:56.916Z,99713.55
2019-03-20T03:01:59.072Z,99712.73
2019-03-20T03:03:03.084Z,99711.88
2019-03-20T03:04:05.023Z,99714.73
2019-03-20T03:05:08.621Z,99716.20
2019-03-20T03:06:10.780Z,99715.58
2019-03-20T03:07:12.647Z,99719.72
2019-03-20T03:08:14.645Z,99714.58
2019-03-20T03:09:16.418Z,99716.23
2019-03-20T03:10:18.645Z,99714.91
2019-03-20T03:11:21.916Z,99718.23
2019-03-20T03:12:24.117Z,99718.94
2019-03-20T03:13:26.230Z,99717.23
2019-03-20T03:14:28.352Z,99719.72
2019-03-20T03:15:30.491Z,99719.57
2019-03-20T03:16:32.762Z,99721.72
2019-03-20T03:17:35.917Z,99721.05
2019-03-20T03:18:38.096Z,99715.88
2019-03-20T03:19:40.031Z,99724.53
2019-03-20T03:20:42.184Z,99721.87
2019-03-20T03:21:44.181Z,99718.39
2019-03-20T03:22:46.159Z,99723.38
2019-03-20T03:23:48.286Z,99723.05
2019-03-20T03:24:49.963Z,99722.05
2019-03-20T03:25:52.062Z,99721.72
2019-03-20T03:26:54.123Z,99718.91
2019-03-20T03:27:56.106Z,99715.91
2019-03-20T03:28:58.288Z,99723.56
2019-03-20T03:30:00.622Z,99724.89
2019-03-20T03:31:02.656Z,99724.56
2019-03-20T03:32:05.131Z,99721.56
2019-03-20T03:33:07.209Z,99730.22
2019-03-20T03:34:08.906Z,99727.23
2019-03-20T03:35:17.058Z,99732.22
2019-03-20T03:36:21.184Z,99736.70
2019-03-20T03:37:19.675Z,99738.55
2019-03-20T03:38:21.661Z,99734.88
2019-03-20T03:39:23.379Z,99735.70
2019-03-20T03:40:25.442Z,99733.55
2019-03-20T03:41:27.460Z,99739.55
2019-03-20T03:42:29.435Z,99739.73
2019-03-20T03:43:32.490Z,99740.39
2019-03-20T03:44:34.741Z,99739.39
2019-03-20T03:45:36.637Z,99746.72
2019-03-20T03:46:38.633Z,99742.21
2019-03-20T03:47:40.893Z,99740.88
2019-03-20T03:48:42.903Z,99747.54
2019-03-20T03:49:44.614Z,99740.73
2019-03-20T03:50:48.389Z,99743.39
2019-03-20T03:51:50.520Z,99734.22
2019-03-20T03:52:52.567Z,99741.06
2019-03-20T03:53:54.844Z,99744.91
2019-03-20T03:54:56.649Z,99741.22
2019-03-20T03:55:58.781Z,99746.72
2019-03-20T03:57:01.095Z,99743.58
2019-03-20T03:58:03.103Z,99737.77
2019-03-20T03:59:05.953Z,99742.24
2019-03-20T04:00:15.071Z,99739.25
2019-03-20T04:01:17.370Z,99736.41
2019-03-20T04:02:19.599Z,99738.58
2019-03-20T04:03:22.124Z,99740.55
2019-03-20T04:04:24.992Z,99743.55
2019-03-20T04:05:27.162Z,99744.21
2019-03-20T04:06:35.436Z,99745.21
2019-03-20T04:07:33.204Z,99747.02
2019-03-20T04:08:35.284Z,99747.02
2019-03-20T04:09:37.673Z,99741.70
2019-03-20T04:10:39.641Z,99746.21
2019-03-20T04:11:41.707Z,99744.36
2019-03-20T04:12:43.987Z,99752.87
2019-03-20T04:13:46.250Z,99745.21
2019-03-20T04:14:48.227Z,99747.36
2019-03-20T04:15:50.015Z,99746.54
2019-03-20T04:16:51.997Z,99744.88
2019-03-20T04:17:53.984Z,99752.20
2019-03-20T04:18:55.753Z,99745.54
2019-03-20T04:19:57.801Z,99744.36
2019-03-20T04:20:59.909Z,99745.54
2019-03-20T04:22:01.803Z,99750.88
2019-03-20T04:23:03.757Z,99749.54
2019-03-20T04:24:05.651Z,99751.02
2019-03-20T04:25:10.667Z,99752.69
2019-03-20T04:26:12.789Z,99752.31
2019-03-20T04:27:15.043Z,99751.98
2019-03-20T04:28:17.021Z,99752.98
2019-03-20T04:29:19.264Z,99756.61
2019-03-20T04:30:21.277Z,99751.55
2019-03-20T04:31:23.515Z,99754.50
2019-03-20T04:32:25.552Z,99751.95
2019-03-20T04:33:28.310Z,99757.23
2019-03-20T04:34:30.039Z,99754.34
2019-03-20T04:35:32.182Z,99762.81
2019-03-20T04:36:46.860Z,99758.48
2019-03-20T04:37:38.928Z,99760.33
2019-03-20T04:38:40.910Z,99762.81
2019-03-20T04:39:42.575Z,99766.47
2019-03-20T04:40:45.785Z,99761.48
2019-03-20T04:41:47.987Z,99766.17
2019-03-20T04:42:50.003Z,99763.52
2019-03-20T04:43:52.135Z,99763.70
2019-03-20T04:44:54.227Z,99765.23
2019-03-20T04:45:55.891Z,99763.89
2019-03-20T04:46:57.907Z,99763.27
2019-03-20T04:48:00.001Z,99768.92
2019-03-20T04:49:01.685Z,99771.92
2019-03-20T04:50:08.334Z,99771.63
2019-03-20T04:51:10.522Z,99772.63
2019-03-20T04:52:12.295Z,99772.96
2019-03-20T04:53:14.271Z,99780.80
2019-03-20T04:54:15.911Z,99781.98
2019-03-20T04:55:18.181Z,99783.98
2019-03-20T04:56:20.192Z,99782.47
2019-03-20T04:57:22.359Z,99779.66
2019-03-20T04:58:24.608Z,99783.50
2019-03-20T04:59:27.737Z,99786.98
2019-03-20T05:00:29.726Z,99783.61
2019-03-20T05:01:32.051Z,99783.80
2019-03-20T05:02:34.240Z,99781.50
2019-03-20T05:03:36.444Z,99788.31
2019-03-20T05:04:38.443Z,99781.80
2019-03-20T05:05:40.508Z,99785.09
2019-03-20T05:06:42.480Z,99784.84
2019-03-20T05:07:44.554Z,99784.23
2019-03-20T05:08:46.768Z,99782.14
2019-03-20T05:09:48.472Z,99794.17
2019-03-20T05:10:50.584Z,99795.06
2019-03-20T05:11:52.610Z,99798.23
2019-03-20T05:12:54.300Z,99792.56
2019-03-20T05:13:56.390Z,99800.08
2019-03-20T05:14:58.524Z,99798.25
2019-03-20T05:16:00.218Z,99799.10
2019-03-20T05:17:02.473Z,99800.28
2019-03-20T05:18:05.757Z,99806.61
2019-03-20T05:19:08.054Z,99805.63
2019-03-20T05:20:16.137Z,99805.27
2019-03-20T05:21:18.137Z,99796.14
2019-03-20T05:22:20.172Z,99801.14
2019-03-20T05:23:22.293Z,99814.27
2019-03-20T05:24:24.373Z,99803.67
2019-03-20T05:25:26.335Z,99803.91
2019-03-20T05:26:28.323Z,99808.11
2019-03-20T05:27:30.373Z,99809.84
2019-03-20T05:28:32.497Z,99807.75
2019-03-20T05:29:34.647Z,99810.63
2019-03-20T05:30:36.331Z,99812.86
2019-03-20T05:31:38.681Z,99814.61
2019-03-20T05:32:40.955Z,99815.14
2019-03-20T05:33:42.947Z,99816.04
2019-03-20T05:34:45.029Z,99811.98
2019-03-20T05:35:47.135Z,99812.88
2019-03-20T05:36:49.120Z,99820.41
2019-03-20T05:37:51.220Z,99821.17
2019-03-20T05:38:53.538Z,99826.05
2019-03-20T05:39:55.200Z,99824.29
2019-03-20T05:40:56.948Z,99827.23
2019-03-20T05:41:59.129Z,99821.50
2019-03-20T05:43:01.142Z,99835.39
2019-03-20T05:44:03.439Z,99833.97
2019-03-20T05:45:11.914Z,99831.58
2019-03-20T05:46:13.600Z,99831.87
2019-03-20T05:47:15.822Z,99836.44
2019-03-20T05:48:17.872Z,99832.41
2019-03-20T05:49:19.857Z,99836.63
2019-03-20T05:50:24.071Z,99835.59
2019-03-20T05:51:26.142Z,99836.36
2019-03-20T05:52:28.320Z,99837.59
2019-03-20T05:53:30.341Z,99836.86
2019-03-20T05:54:32.220Z,99833.80
2019-03-20T05:55:34.329Z,99836.70
2019-03-20T05:56:36.274Z,99835.75
2019-03-20T05:57:39.893Z,99840.33
2019-03-20T05:58:41.902Z,99845.05
2019-03-20T05:59:43.929Z,99847.48
2019-03-20T06:00:46.072Z,99846.78
2019-03-20T06:01:48.206Z,99848.02
2019-03-20T06:02:50.364Z,99850.09
2019-03-20T06:03:52.037Z,99857.69
2019-03-20T06:04:54.128Z,99857.11
2019-03-20T06:05:56.375Z,99863.86
2019-03-20T06:06:58.106Z,99862.78
2019-03-20T06:08:00.357Z,99857.88
2019-03-20T06:09:05.801Z,99855.52
2019-03-20T06:10:14.454Z,99856.21
2019-03-20T06:11:16.596Z,99862.36
2019-03-20T06:12:18.675Z,99860.53
2019-03-20T06:13:22.992Z,99866.68
2019-03-20T06:14:25.160Z,99865.36
2019-03-20T06:15:27.332Z,99873.77
2019-03-20T06:16:29.298Z,99870.55
2019-03-20T06:17:31.417Z,99869.00
2019-03-20T06:18:33.939Z,99870.95
2019-03-20T06:19:38.227Z,99866.88
2019-03-20T06:20:41.515Z,99865.55
2019-03-20T06:21:43.185Z,99862.03
2019-03-20T06:22:45.450Z,99866.98
2019-03-20T06:23:47.545Z,99865.60
2019-03-20T06:24:49.251Z,99875.83
2019-03-20T06:25:51.712Z,99878.09
2019-03-20T06:26:54.206Z,99882.69
2019-03-20T06:27:56.357Z,99877.45
2019-03-20T06:28:58.445Z,99871.92
2019-03-20T06:30:02.730Z,99868.77
2019-03-20T06:31:04.693Z,99873.59
2019-03-20T06:32:06.946Z,99876.84
2019-03-20T06:33:08.952Z,99877.45
2019-03-20T06:34:11.019Z,99881.26
2019-03-20T06:35:13.348Z,99887.53
2019-03-20T06:36:16.457Z,99884.53
2019-03-20T06:37:18.569Z,99882.01
2019-03-20T06:38:20.672Z,99881.19
2019-03-20T06:39:22.847Z,99880.34
2019-03-20T06:40:24.552Z,99884.42
2019-03-20T06:41:27.030Z,99880.11
2019-03-20T06:42:29.030Z,99882.13
2019-03-20T06:43:31.072Z,99885.28
2019-03-20T06:44:33.170Z,99884.08
2019-03-20T06:45:35.010Z,99880.45
2019-03-20T06:46:37.144Z,99876.98
2019-03-20T06:47:41.339Z,99881.91
2019-03-20T06:48:43.212Z,99883.45
2019-03-20T06:49:46.412Z,99882.75
2019-03-20T06:50:48.472Z,99887.35
2019-03-20T06:51:51.602Z,99883.00
2019-03-20T06:52:53.679Z,99892.27
2019-03-20T06:53:55.830Z,99890.24
2019-03-20T06:54:57.934Z,99886.27
2019-03-20T06:55:59.977Z,99885.30
2019-03-20T06:57:02.716Z,99881.83
2019-03-20T06:58:04.931Z,99892.49
2019-03-20T06:59:29.648Z,99893.97
2019-03-20T07:00:58.528Z,99894.67
2019-03-20T07:02:04.829Z,99897.94
2019-03-20T07:03:21.381Z,99899.86
2019-03-20T07:04:44.317Z,99897.13
2019-03-20T07:06:06.627Z,99905.77
2019-03-20T07:07:15.385Z,99900.13
2019-03-20T07:08:21.327Z,99901.45
2019-03-20T07:09:47.121Z,99908.19
2019-03-20T07:11:10.553Z,99898.58
2019-03-20T07:12:12.547Z,99902.42
2019-03-20T07:13:14.200Z,99913.71
2019-03-20T07:14:16.197Z,99909.86
2019-03-20T07:15:18.513Z,99908.66
2019-03-20T07:16:20.673Z,99913.25
2019-03-20T07:17:22.929Z,99909.05
2019-03-20T07:18:27.625Z,99915.04
2019-03-20T07:19:30.075Z,99911.53
2019-03-20T07:20:33.825Z,99906.47
2019-03-20T07:21:35.880Z,99912.97
2019-03-20T07:22:41.646Z,99908.53
2019-03-20T07:23:43.646Z,99912.50
2019-03-20T07:24:45.564Z,99912.84
2019-03-20T07:25:47.845Z,99908.76
2019-03-20T07:26:49.839Z,99909.85
2019-03-20T07:27:52.555Z,99913.08
2019-03-20T07:28:54.545Z,99909.80
2019-03-20T07:29:56.486Z,99912.21
2019-03-20T07:30:58.244Z,99908.59
2019-03-20T07:32:00.258Z,99909.87
2019-03-20T07:33:02.402Z,99907.95
2019-03-20T07:34:04.768Z,99911.52
2019-03-20T07:35:06.942Z,99907.78
2019-03-20T07:36:09.410Z,99906.80
2019-03-20T07:37:11.406Z,99911.00
2019-03-20T07:38:13.600Z,99911.35
2019-03-20T07:39:15.608Z,99914.84
2019-03-20T07:40:17.366Z,99911.86
2019-03-20T07:41:19.392Z,99912.67
2019-03-20T07:42:21.842Z,99918.83
2019-03-20T07:43:23.974Z,99916.17
2019-03-20T07:44:26.177Z,99915.95
2019-03-20T07:45:28.068Z,99912.66
2019-03-20T07:46:29.981Z,99920.59
2019-03-20T07:47:32.028Z,99916.63
2019-03-20T07:48:34.167Z,99915.66
2019-03-20T07:49:36.310Z,99919.75
2019-03-20T07:50:38.271Z,99919.63
2019-03-20T07:51:40.269Z,99917.33
2019-03-20T07:52:42.473Z,99921.30
2019-03-20T07:53:44.674Z,99923.32
2019-03-20T07:54:46.737Z,99926.07
2019-03-20T07:55:49.091Z,99928.82
2019-03-20T07:56:51.315Z,99923.88
2019-03-20T07:57:53.594Z,99927.74
2019-03-20T07:58:56.755Z,99930.50
2019-03-20T07:59:58.879Z,99935.58
2019-03-20T08:01:00.798Z,99927.00
2019-03-20T08:02:03.363Z,99932.20
2019-03-20T08:03:05.667Z,99937.12
2019-03-20T08:04:07.899Z,99931.59
2019-03-20T08:05:10.065Z,99931.53
2019-03-20T08:06:12.023Z,99930.27
2019-03-20T08:07:13.992Z,99933.20
2019-03-20T08:08:16.227Z,99929.12
2019-03-20T08:09:18.541Z,99934.65
2019-03-20T08:10:20.578Z,99935.28
2019-03-20T08:11:22.697Z,99935.34
2019-03-20T08:12:24.494Z,99932.41
2019-03-20T08:13:26.693Z,99931.66
2019-03-20T08:14:28.811Z,99935.95
2019-03-20T08:15:30.764Z,99933.77
2019-03-20T08:16:32.813Z,99936.20
2019-03-20T08:17:34.907Z,99938.72
2019-03-20T08:18:36.564Z,99938.22
2019-03-20T08:19:38.528Z,99935.56
2019-03-20T08:20:41.624Z,99939.07
2019-03-20T08:21:43.647Z,99940.94
2019-03-20T08:22:45.871Z,99941.31
2019-03-20T08:23:47.856Z,99937.91
2019-03-20T08:24:49.897Z,99939.42
2019-03-20T08:25:52.235Z,99939.30
2019-03-20T08:26:54.348Z,99936.08
2019-03-20T08:27:56.397Z,99939.98
2019-03-20T08:28:58.567Z,99939.02
2019-03-20T08:30:01.054Z,99935.77
2019-03-20T08:31:04.334Z,99930.12
2019-03-20T08:32:06.166Z,99932.70
2019-03-20T08:33:08.482Z,99932.83
2019-03-20T08:34:10.188Z,99939.02
2019-03-20T08:35:13.394Z,99936.30
2019-03-20T08:36:15.765Z,99934.47
2019-03-20T08:37:17.752Z,99938.19
2019-03-20T08:38:20.107Z,99940.27
2019-03-20T08:39:22.161Z,99937.53
2019-03-20T08:40:24.095Z,99936.23
2019-03-20T08:41:26.114Z,99941.59
2019-03-20T08:42:28.759Z,99938.30
2019-03-20T08:43:30.964Z,99942.98
2019-03-20T08:44:34.059Z,99945.96
2019-03-20T08:45:36.043Z,99939.11
2019-03-20T08:46:37.869Z,99941.95
2019-03-20T08:47:40.099Z,99937.98
2019-03-20T08:48:42.053Z,99937.38
2019-03-20T08:49:45.820Z,99943.31
2019-03-20T08:50:48.080Z,99944.16
2019-03-20T08:51:50.231Z,99943.53
2019-03-20T08:52:52.622Z,99944.16
2019-03-20T08:53:56.287Z,99940.44
2019-03-20T08:54:58.229Z,99945.33
2019-03-20T08:56:00.178Z,99942.90
2019-03-20T08:57:02.561Z,99943.22
2019-03-20T08:58:04.823Z,99945.20
2019-03-20T08:59:07.175Z,99939.78
2019-03-20T09:00:13.538Z,99945.33
2019-03-20T09:01:15.302Z,99950.06
2019-03-20T09:02:17.391Z,99945.02
2019-03-20T09:03:19.343Z,99948.84
2019-03-20T09:04:22.123Z,99947.69
2019-03-20T09:05:24.252Z,99949.37
2019-03-20T09:06:26.224Z,99952.04
2019-03-20T09:07:28.823Z,99952.80
2019-03-20T09:08:30.872Z,99952.34
2019-03-20T09:09:32.847Z,99948.30
2019-03-20T09:10:35.114Z,99952.34
2019-03-20T09:11:37.176Z,99951.09
2019-03-20T09:12:39.183Z,99951.31
2019-03-20T09:13:41.411Z,99955.02
2019-03-20T09:14:43.446Z,99956.34
2019-03-20T09:15:45.602Z,99956.34
2019-03-20T09:16:47.975Z,99958.36
2019-03-20T09:17:50.468Z,99956.09
2019-03-20T09:18:53.304Z,99953.50
2019-03-20T09:19:55.448Z,99950.41
2019-03-20T09:20:57.676Z,99950.32
2019-03-20T09:22:00.510Z,99955.91
2019-03-20T09:23:02.862Z,99955.02
2019-03-20T09:24:05.328Z,99946.22
2019-03-20T09:25:18.520Z,99959.59
2019-03-20T09:26:20.702Z,99957.44
2019-03-20T09:27:22.908Z,99960.61
2019-03-20T09:28:24.857Z,99953.06
2019-03-20T09:29:35.727Z,99958.91
2019-03-20T09:30:31.333Z,99955.81
2019-03-20T09:31:33.581Z,99964.52
2019-03-20T09:32:35.891Z,99956.80
2019-03-20T09:33:39.469Z,99957.70
2019-03-20T09:34:41.708Z,99956.52
2019-03-20T09:35:43.769Z,99950.32
2019-03-20T09:36:45.528Z,99953.70
2019-03-20T09:37:52.358Z,99949.75
2019-03-20T09:38:52.769Z,99954.39
2019-03-20T09:39:54.763Z,99954.53
2019-03-20T09:40:56.943Z,99955.22
2019-03-20T09:41:58.929Z,99954.67
2019-03-20T09:43:01.245Z,99953.27
2019-03-20T09:44:03.796Z,99951.12
2019-03-20T09:45:10.204Z,99949.45
2019-03-20T09:46:12.484Z,99947.19
2019-03-20T09:47:14.711Z,99950.52
2019-03-20T09:48:16.928Z,99955.09
2019-03-20T09:49:18.987Z,99956.64
2019-03-20T09:50:25.793Z,99954.12
2019-03-20T09:51:27.943Z,99956.30
2019-03-20T09:52:31.059Z,99951.93
2019-03-20T09:53:33.102Z,99953.56
2019-03-20T09:54:34.813Z,99949.06
2019-03-20T09:55:37.917Z,99957.03
2019-03-20T09:56:40.138Z,99944.91
2019-03-20T09:57:42.663Z,99942.47
2019-03-20T09:58:44.842Z,99948.47
2019-03-20T09:59:46.789Z,99947.13
2019-03-20T10:00:50.493Z,99952.03
2019-03-20T10:01:52.528Z,99943.81
2019-03-20T10:02:55.049Z,99946.34
2019-03-20T10:03:56.778Z,99952.42
2019-03-20T10:04:58.886Z,99952.97
2019-03-20T10:06:01.222Z,99949.42
2019-03-20T10:07:04.916Z,99952.78
2019-03-20T10:08:07.154Z,99952.27
2019-03-20T10:09:09.175Z,99946.59
2019-03-20T10:10:23.030Z,99946.05
2019-03-20T10:11:25.294Z,99939.49
2019-03-20T10:12:27.376Z,99943.27
2019-03-20T10:13:29.490Z,99949.40
2019-03-20T10:14:31.526Z,99949.81
2019-03-20T10:15:33.802Z,99950.89
2019-03-20T10:16:35.941Z,99948.98
2019-03-20T10:17:38.144Z,99958.58
2019-03-20T10:18:40.167Z,99961.42
2019-03-20T10:19:42.675Z,99952.84
2019-03-20T10:20:45.280Z,99961.76
2019-03-20T10:21:48.406Z,99959.45
2019-03-20T10:22:50.939Z,99964.14
2019-03-20T10:23:53.315Z,99956.31
2019-03-20T10:24:56.032Z,99963.28
2019-03-20T10:25:59.621Z,99962.38
2019-03-20T10:27:01.602Z,99969.02
2019-03-20T10:28:03.931Z,99967.62
2019-03-20T10:29:06.129Z,99970.14
2019-03-20T10:30:27.665Z,99970.19
2019-03-20T10:31:29.391Z,99961.88
2019-03-20T10:32:31.674Z,99965.52
2019-03-20T10:33:33.861Z,99967.70
2019-03-20T10:34:39.641Z,99969.85
2019-03-20T10:35:49.866Z,99966.16
2019-03-20T10:36:46.073Z,99970.14
2019-03-20T10:37:48.651Z,99963.22
2019-03-20T10:38:50.587Z,99963.94
2019-03-20T10:39:52.711Z,99965.27
2019-03-20T10:40:54.746Z,99963.64
2019-03-20T10:41:57.018Z,99962.10
2019-03-20T10:42:59.175Z,99966.59
2019-03-20T10:44:01.316Z,99963.09
2019-03-20T10:45:07.730Z,99964.07
2019-03-20T10:46:10.561Z,99966.47
2019-03-20T10:47:13.200Z,99963.81
2019-03-20T10:48:15.374Z,99963.38
2019-03-20T10:49:17.192Z,99964.92
2019-03-20T10:50:21.577Z,99968.61
2019-03-20T10:51:23.684Z,99967.10
2019-03-20T10:52:26.014Z,99972.76
2019-03-20T10:53:28.219Z,99972.40
2019-03-20T10:54:30.367Z,99977.09
2019-03-20T10:55:32.460Z,99967.99
2019-03-20T10:56:34.536Z,99973.44
2019-03-20T10:57:36.408Z,99975.46
2019-03-20T10:58:39.551Z,99974.30
2019-03-20T10:59:41.642Z,99979.18
2019-03-20T11:00:43.646Z,99972.59
2019-03-20T11:01:45.736Z,99974.98
2019-03-20T11:02:47.907Z,99971.13
2019-03-20T11:03:50.332Z,99975.55
2019-03-20T11:04:52.458Z,99976.66
2019-03-20T11:05:54.459Z,99977.52
2019-03-20T11:06:56.568Z,99979.88
2019-03-20T11:07:58.856Z,99975.55
2019-03-20T11:09:01.202Z,99968.83
2019-03-20T11:10:11.582Z,99974.34
2019-03-20T11:11:13.988Z,99980.08
2019-03-20T11:12:16.380Z,99979.78
2019-03-20T11:13:18.479Z,99980.76
2019-03-20T11:14:20.763Z,99977.89
2019-03-20T11:15:24.835Z,99970.02
2019-03-20T11:16:26.884Z,99972.91
2019-03-20T11:17:29.123Z,99968.16
2019-03-20T11:18:31.047Z,99974.02
2019-03-20T11:19:33.222Z,99969.84
2019-03-20T11:20:35.405Z,99966.42
2019-03-20T11:21:37.753Z,99965.69
2019-03-20T11:22:40.198Z,99967.48
2019-03-20T11:23:42.562Z,99966.29
2019-03-20T11:24:44.812Z,99967.34
2019-03-20T11:25:46.949Z,99966.16
2019-03-20T11:26:49.207Z,99970.57
2019-03-20T11:27:51.436Z,99959.83
2019-03-20T11:28:54.817Z,99964.63
2019-03-20T11:29:56.920Z,99965.61
2019-03-20T11:30:58.831Z,99968.00
2019-03-20T11:32:03.102Z,99969.89
2019-03-20T11:33:05.076Z,99967.45
2019-03-20T11:34:06.856Z,99968.48
2019-03-20T11:35:09.334Z,99962.05
2019-03-20T11:36:11.499Z,99966.47
2019-03-20T11:37:13.796Z,99967.45
2019-03-20T11:38:16.098Z,99968.00
2019-03-20T11:39:29.005Z,99970.23
2019-03-20T11:40:37.332Z,99968.86
2019-03-20T11:41:39.471Z,99975.06
2019-03-20T11:42:42.036Z,99967.58
2019-03-20T11:43:44.142Z,99971.08
2019-03-20T11:44:46.200Z,99968.14
2019-03-20T11:45:49.145Z,99961.58
2019-03-20T11:46:51.614Z,99968.91
2019-03-20T11:47:54.797Z,99967.74
2019-03-20T11:48:58.738Z,99970.39
2019-03-20T11:50:00.885Z,99966.25
2019-03-20T11:51:03.116Z,99967.66
2019-03-20T11:52:06.395Z,99973.88
2019-03-20T11:53:09.217Z,99966.73
2019-03-20T11:54:12.583Z,99967.31
2019-03-20T11:55:15.130Z,99971.00
2019-03-20T11:56:17.681Z,99964.79
2019-03-20T11:57:21.709Z,99965.22
2019-03-20T11:58:23.868Z,99965.34
2019-03-20T11:59:26.212Z,99963.30
2019-03-20T12:00:28.473Z,99958.62
2019-03-20T12:01:30.534Z,99957.25
2019-03-20T12:02:32.974Z,99955.29
2019-03-20T12:03:35.265Z,99955.16
2019-03-20T12:04:39.076Z,99953.04
2019-03-20T12:05:41.273Z,99952.50
2019-03-20T12:06:45.806Z,99952.50
2019-03-20T12:07:48.177Z,99953.60
2019-03-20T12:08:50.847Z,99951.15
2019-03-20T12:09:52.746Z,99953.23
2019-03-20T12:10:54.853Z,99945.79
2019-03-20T12:11:57.217Z,99947.44
2019-03-20T12:12:59.389Z,99939.09
2019-03-20T12:14:01.646Z,99941.59
2019-03-20T12:15:08.313Z,99941.00
2019-03-20T12:16:10.118Z,99936.92
2019-03-20T12:17:12.254Z,99942.74